createdAt,value
2019-05-14T00:00:42.473Z,55.45
2019-05-14T00:03:18.275Z,57.98
2019-05-14T00:05:55.316Z,54.73
2019-05-14T00:08:31.433Z,53.40
2019-05-14T00:11:09.523Z,58.52
2019-05-14T00:13:46.873Z,55.55
2019-05-14T00:16:25.740Z,52.35
2019-05-14T00:19:01.889Z,52.00
2019-05-14T00:21:42.559Z,53.65
2019-05-14T00:24:21.693Z,56.58
2019-05-14T00:26:59.042Z,54.35
2019-05-14T00:29:35.858Z,54.67
2019-05-14T00:32:14.234Z,54.00
2019-05-14T00:34:51.593Z,51.98
2019-05-14T00:37:29.272Z,50.75
2019-05-14T00:40:11.775Z,50.92
2019-05-14T00:42:47.670Z,50.15
2019-05-14T00:45:25.251Z,52.58
2019-05-14T00:48:02.472Z,44.73
2019-05-14T00:50:47.001Z,49.80
2019-05-14T00:53:23.229Z,41.88
2019-05-14T00:56:06.567Z,43.70
2019-05-14T00:58:43.948Z,43.23
2019-05-14T01:01:21.513Z,48.58
2019-05-14T01:04:01.112Z,48.05
2019-05-14T01:06:37.975Z,51.30
2019-05-14T01:09:23.427Z,46.95
2019-05-14T01:12:01.872Z,46.48
2019-05-14T01:14:38.386Z,44.83
2019-05-14T01:17:15.412Z,46.13
2019-05-14T01:19:55.942Z,43.98
2019-05-14T01:22:32.260Z,42.53
2019-05-14T01:25:09.201Z,45.37
2019-05-14T01:27:45.603Z,45.38
2019-05-14T01:30:23.107Z,40.53
2019-05-14T01:33:03.401Z,38.42
2019-05-14T01:35:42.020Z,38.95
2019-05-14T01:38:17.819Z,36.75
2019-05-14T01:40:54.494Z,34.67
2019-05-14T01:43:41.749Z,38.90
2019-05-14T01:46:16.875Z,36.07
2019-05-14T01:48:53.428Z,46.60
2019-05-14T01:51:31.903Z,41.50
2019-05-14T01:54:07.545Z,48.38
2019-05-14T01:56:43.419Z,63.48
2019-05-14T01:59:21.314Z,66.50
2019-05-14T02:01:57.294Z,62.00
2019-05-14T02:04:35.362Z,50.40
2019-05-14T02:07:15.899Z,44.93
2019-05-14T02:09:51.612Z,51.75
2019-05-14T02:12:27.724Z,52.62
2019-05-14T02:15:03.389Z,52.65
2019-05-14T02:17:41.396Z,64.50
2019-05-14T02:20:18.774Z,59.33
2019-05-14T02:22:54.578Z,57.62
2019-05-14T02:25:32.976Z,61.13
2019-05-14T02:28:11.404Z,55.48
2019-05-14T02:30:55.969Z,56.13
2019-05-14T02:33:22.219Z,52.55
2019-05-14T02:35:59.913Z,54.63
2019-05-14T02:38:34.312Z,56.60
2019-05-14T02:41:12.890Z,61.18
2019-05-14T02:43:50.301Z,60.52
2019-05-14T02:48:59.487Z,61.77
2019-05-14T02:51:38.911Z,61.35
2019-05-14T02:54:13.972Z,66.82
2019-05-14T02:56:49.546Z,60.25
2019-05-14T02:59:30.190Z,66.37
2019-05-14T03:04:35.686Z,56.73
2019-05-14T03:07:12.586Z,62.48
2019-05-14T03:09:50.418Z,59.77
2019-05-14T03:12:25.758Z,63.98
2019-05-14T03:15:01.811Z,68.95
2019-05-14T03:17:43.366Z,68.95
2019-05-14T03:20:30.943Z,152.80
2019-05-14T03:23:17.813Z,69.27
2019-05-14T03:28:20.575Z,75.03
2019-05-14T03:30:55.383Z,63.23
2019-05-14T03:33:33.221Z,63.65
2019-05-14T03:36:16.593Z,67.50
2019-05-14T03:38:49.984Z,66.33
2019-05-14T03:41:30.335Z,65.05
2019-05-14T03:44:05.190Z,74.50
2019-05-14T03:46:51.442Z,76.37
2019-05-14T03:49:19.827Z,75.00
2019-05-14T03:52:00.375Z,71.53
2019-05-14T03:54:35.428Z,74.97
2019-05-14T03:57:11.967Z,78.67
2019-05-14T03:59:49.842Z,81.82
2019-05-14T04:02:29.738Z,95.87
2019-05-14T04:05:09.574Z,94.85
2019-05-14T04:07:49.933Z,91.12
2019-05-14T04:10:31.007Z,103.70
2019-05-14T04:13:09.109Z,105.10
2019-05-14T04:15:49.749Z,114.82
2019-05-14T04:18:28.600Z,119.75
2019-05-14T04:21:10.003Z,122.58
2019-05-14T04:23:45.849Z,121.25
2019-05-14T04:26:24.741Z,119.40
2019-05-14T04:29:04.362Z,125.35
2019-05-14T04:31:44.495Z,134.85
2019-05-14T04:34:22.241Z,130.10
2019-05-14T04:36:59.680Z,131.75
2019-05-14T04:39:50.342Z,134.93
2019-05-14T04:42:40.466Z,121.77
2019-05-14T04:45:19.428Z,129.38
2019-05-14T04:50:33.736Z,124.80
2019-05-14T04:53:30.716Z,131.20
2019-05-14T04:56:05.443Z,127.10
2019-05-14T04:58:51.409Z,126.85
2019-05-14T05:01:30.273Z,121.97
2019-05-14T05:04:14.243Z,122.50
2019-05-14T05:06:59.269Z,120.95
2019-05-14T05:09:39.730Z,112.60
2019-05-14T05:12:15.927Z,114.25
2019-05-14T05:14:54.422Z,109.42
2019-05-14T05:17:44.216Z,113.00
2019-05-14T05:22:54.855Z,109.42
2019-05-14T05:25:32.575Z,111.88
2019-05-14T05:28:11.249Z,108.15
2019-05-14T05:30:49.352Z,107.72
2019-05-14T05:33:29.135Z,95.80
2019-05-14T05:36:19.020Z,101.27
2019-05-14T05:39:20.223Z,109.55
2019-05-14T05:42:09.274Z,107.63
2019-05-14T05:44:48.702Z,99.62
2019-05-14T05:47:29.021Z,104.55
2019-05-14T05:50:04.702Z,102.27
2019-05-14T05:52:40.886Z,107.70
2019-05-14T05:55:19.000Z,108.40
2019-05-14T06:00:40.608Z,102.05
2019-05-14T06:03:20.594Z,107.85
2019-05-14T06:06:01.108Z,103.02
2019-05-14T06:08:49.029Z,104.47
2019-05-14T06:11:24.805Z,100.70
2019-05-14T06:14:03.948Z,100.92
2019-05-14T06:16:39.660Z,104.17
2019-05-14T06:19:23.185Z,157.40
2019-05-14T06:21:59.959Z,144.68
2019-05-14T06:24:36.134Z,311.48
2019-05-14T06:27:12.218Z,214.63
2019-05-14T06:29:50.657Z,146.45
2019-05-14T06:32:31.419Z,113.83
2019-05-14T06:35:11.666Z,123.42
2019-05-14T06:37:49.043Z,120.20
2019-05-14T06:40:28.557Z,240.65
2019-05-14T06:43:04.219Z,166.80
2019-05-14T06:48:29.864Z,117.28
2019-05-14T06:51:04.147Z,129.57
2019-05-14T06:56:35.263Z,120.50
2019-05-14T06:59:10.781Z,152.93
2019-05-14T07:01:48.782Z,131.32
2019-05-14T07:04:25.208Z,128.38
2019-05-14T07:07:01.265Z,121.47
2019-05-14T07:09:43.672Z,164.88
2019-05-14T07:15:13.135Z,158.85
2019-05-14T07:17:58.406Z,135.45
2019-05-14T07:20:39.226Z,140.97
2019-05-14T07:23:19.227Z,124.12
2019-05-14T07:25:54.128Z,124.85
2019-05-14T07:28:30.293Z,125.18
2019-05-14T07:31:10.597Z,126.00
2019-05-14T07:33:48.976Z,125.87
2019-05-14T07:36:23.162Z,145.60
2019-05-14T07:39:00.244Z,149.97
2019-05-14T07:41:38.776Z,156.22
2019-05-14T07:44:18.192Z,155.48
2019-05-14T07:46:52.703Z,156.87
2019-05-14T07:49:29.068Z,177.12
2019-05-14T07:52:10.411Z,213.47
2019-05-14T07:54:48.072Z,149.27
2019-05-14T07:57:22.475Z,165.52
2019-05-14T08:00:00.303Z,473.93
2019-05-14T08:02:38.028Z,534.63
2019-05-14T08:05:13.707Z,153.20
2019-05-14T08:07:49.605Z,253.20
2019-05-14T08:10:25.874Z,303.92
2019-05-14T08:13:01.677Z,127.67
2019-05-14T08:15:38.667Z,149.07
2019-05-14T08:18:20.956Z,167.30
2019-05-14T08:20:58.975Z,130.60
2019-05-14T08:23:33.792Z,116.03
2019-05-14T08:26:10.835Z,272.98
2019-05-14T08:28:48.653Z,120.85
2019-05-14T08:31:24.611Z,117.65
2019-05-14T08:36:38.133Z,130.57
2019-05-14T08:39:14.714Z,156.18
2019-05-14T08:41:59.333Z,131.97
2019-05-14T08:44:29.389Z,164.50
2019-05-14T08:49:46.160Z,130.25
2019-05-14T08:52:23.180Z,133.45
2019-05-14T08:55:07.007Z,142.07
2019-05-14T08:57:38.756Z,131.70
2019-05-14T09:00:14.397Z,147.40
2019-05-14T09:02:50.965Z,139.10
2019-05-14T09:05:28.560Z,142.82
2019-05-14T09:08:04.440Z,146.72
2019-05-14T09:10:40.775Z,143.40
2019-05-14T09:13:18.422Z,140.12
2019-05-14T09:15:53.568Z,146.02
2019-05-14T09:21:05.649Z,153.20
2019-05-14T09:23:42.032Z,141.83
2019-05-14T09:26:21.549Z,141.45
2019-05-14T09:28:58.676Z,143.95
2019-05-14T09:31:35.613Z,139.52
2019-05-14T09:34:19.407Z,139.82
2019-05-14T09:36:53.146Z,136.28
2019-05-14T09:39:30.181Z,175.03
2019-05-14T09:42:07.947Z,137.32
2019-05-14T09:44:48.870Z,129.25
2019-05-14T09:47:23.137Z,126.47
2019-05-14T09:50:15.318Z,129.42
2019-05-14T09:52:38.894Z,121.17
2019-05-14T09:55:14.077Z,134.32
2019-05-14T09:57:51.345Z,115.75
2019-05-14T10:00:26.925Z,118.80
2019-05-14T10:03:02.644Z,107.90
2019-05-14T10:05:38.644Z,107.10
2019-05-14T10:08:14.448Z,103.90
2019-05-14T10:10:50.930Z,102.20
2019-05-14T10:13:28.064Z,100.35
2019-05-14T10:16:04.643Z,100.67
2019-05-14T10:18:41.642Z,96.63
2019-05-14T10:21:19.125Z,88.12
2019-05-14T10:23:55.127Z,90.53
2019-05-14T10:26:31.661Z,92.70
2019-05-14T10:29:08.657Z,83.52
2019-05-14T10:34:23.534Z,79.17
2019-05-14T10:36:59.719Z,78.70
2019-05-14T10:39:35.550Z,81.90
2019-05-14T10:42:11.757Z,87.47
2019-05-14T10:44:47.957Z,78.30
2019-05-14T10:47:23.924Z,80.10
2019-05-14T10:53:02.007Z,80.07
2019-05-14T10:55:38.635Z,74.25
2019-05-14T10:58:14.743Z,71.12
2019-05-14T11:00:50.441Z,87.00
2019-05-14T11:03:29.728Z,443.25
2019-05-14T11:06:03.648Z,85.40
2019-05-14T11:08:42.290Z,90.55
2019-05-14T11:11:18.510Z,123.00
2019-05-14T11:13:55.066Z,67.55
2019-05-14T11:16:30.662Z,63.70
2019-05-14T11:19:09.077Z,61.10
2019-05-14T11:24:21.689Z,56.73
2019-05-14T11:26:59.144Z,48.68
2019-05-14T11:29:34.281Z,49.95
2019-05-14T11:32:11.628Z,54.77
2019-05-14T11:34:49.238Z,58.87
2019-05-14T11:37:24.834Z,49.23
2019-05-14T11:40:00.718Z,52.25
2019-05-14T11:45:14.625Z,51.73
2019-05-14T11:47:50.334Z,47.50
2019-05-14T11:50:28.475Z,51.95
2019-05-14T11:53:03.192Z,63.28
2019-05-14T11:55:45.305Z,52.93
2019-05-14T11:58:21.557Z,61.15
2019-05-14T12:00:58.461Z,46.15
2019-05-14T12:03:35.307Z,52.45
2019-05-14T12:06:11.877Z,50.95
2019-05-14T12:08:47.815Z,52.70
2019-05-14T12:13:59.836Z,55.03
2019-05-14T12:16:35.619Z,50.52
2019-05-14T12:19:12.439Z,49.65
2019-05-14T12:22:02.280Z,55.88
2019-05-14T12:24:25.261Z,52.03
2019-05-14T12:27:01.283Z,53.75
2019-05-14T12:29:39.520Z,50.12
2019-05-14T12:32:14.322Z,50.15
2019-05-14T12:34:51.128Z,50.38
2019-05-14T12:40:01.052Z,48.13
2019-05-14T12:42:42.264Z,51.05
2019-05-14T12:45:21.955Z,53.50
2019-05-14T12:47:58.453Z,49.13
2019-05-14T12:50:35.453Z,49.98
2019-05-14T12:53:13.973Z,49.58
2019-05-14T12:55:49.920Z,53.70
2019-05-14T12:58:29.702Z,49.47
2019-05-14T13:01:05.375Z,55.43
2019-05-14T13:06:19.102Z,49.90
2019-05-14T13:08:54.581Z,51.65
2019-05-14T13:11:30.241Z,49.73
2019-05-14T13:14:10.382Z,46.70
2019-05-14T13:16:48.577Z,51.23
2019-05-14T13:19:28.620Z,49.55
2019-05-14T13:22:12.990Z,54.50
2019-05-14T13:24:51.562Z,53.05
2019-05-14T13:27:28.725Z,46.42
2019-05-14T13:32:42.375Z,38.38
2019-05-14T13:35:19.875Z,36.63
2019-05-14T13:37:58.610Z,37.45
2019-05-14T13:40:35.015Z,38.42
2019-05-14T13:43:14.545Z,38.88
2019-05-14T13:45:55.746Z,37.85
2019-05-14T13:48:38.657Z,38.38
2019-05-14T13:51:19.788Z,43.05
2019-05-14T13:53:58.762Z,38.75
2019-05-14T13:56:35.923Z,39.58
2019-05-14T13:59:18.826Z,39.10
2019-05-14T14:04:33.734Z,37.15
2019-05-14T14:07:12.147Z,38.40
2019-05-14T14:09:49.805Z,41.42
2019-05-14T14:12:29.327Z,41.15
2019-05-14T14:15:09.450Z,49.03
2019-05-14T14:17:49.409Z,45.52
2019-05-14T14:20:29.064Z,46.55
2019-05-14T14:25:53.388Z,40.80
2019-05-14T14:28:39.278Z,46.70
2019-05-14T14:37:02.394Z,48.80
2019-05-14T14:39:48.629Z,52.10
2019-05-14T14:42:24.364Z,56.02
2019-05-14T14:45:08.446Z,59.27
2019-05-14T14:47:50.026Z,60.28
2019-05-14T14:50:29.262Z,59.13
2019-05-14T14:53:09.199Z,62.65
2019-05-14T14:55:49.507Z,64.60
2019-05-14T14:58:28.509Z,57.10
2019-05-14T15:01:21.537Z,59.88
2019-05-14T15:04:00.024Z,62.60
2019-05-14T15:06:39.979Z,53.78
2019-05-14T15:09:26.307Z,49.98
2019-05-14T15:12:01.994Z,36.23
2019-05-14T15:14:39.485Z,39.53
2019-05-14T15:17:30.095Z,36.35
2019-05-14T15:20:09.899Z,41.80
2019-05-14T15:22:49.203Z,42.65
2019-05-14T15:25:25.759Z,43.05
2019-05-14T15:34:01.612Z,56.60
2019-05-14T15:36:48.968Z,52.08
2019-05-14T15:39:29.875Z,49.98
2019-05-14T15:42:06.018Z,45.75
2019-05-14T15:44:54.468Z,46.23
2019-05-14T15:47:20.784Z,51.75
2019-05-14T15:52:59.090Z,43.45
2019-05-14T15:55:34.762Z,32.85
2019-05-14T15:58:13.572Z,45.40
2019-05-14T16:00:50.100Z,31.77
2019-05-14T16:06:19.884Z,38.48
2019-05-14T16:08:59.002Z,38.67
2019-05-14T16:11:36.181Z,47.25
2019-05-14T16:14:19.123Z,37.38
2019-05-14T16:16:59.199Z,38.78
2019-05-14T16:19:40.127Z,41.88
2019-05-14T16:22:29.436Z,41.50
2019-05-14T16:25:12.349Z,49.85
2019-05-14T16:27:50.939Z,53.17
2019-05-14T16:30:29.023Z,51.83
2019-05-14T16:36:02.507Z,50.12
2019-05-14T16:38:39.478Z,37.50
2019-05-14T16:41:18.246Z,39.18
2019-05-14T16:46:28.704Z,26.55
2019-05-14T16:49:03.359Z,29.75
2019-05-14T16:51:39.144Z,33.42
2019-05-14T16:54:18.206Z,34.30
2019-05-14T16:56:53.338Z,28.05
2019-05-14T16:59:34.900Z,26.35
2019-05-14T17:02:11.369Z,28.67
2019-05-14T17:04:48.339Z,31.68
2019-05-14T17:07:28.795Z,37.65
2019-05-14T17:10:03.846Z,45.25
2019-05-14T17:12:52.009Z,67.10
2019-05-14T17:15:18.734Z,54.20
2019-05-14T17:17:55.343Z,42.50
2019-05-14T17:20:31.102Z,52.62
2019-05-14T17:23:08.898Z,51.25
2019-05-14T17:25:43.407Z,59.18
2019-05-14T17:28:20.426Z,58.40
2019-05-14T17:30:58.675Z,53.78
2019-05-14T17:33:34.160Z,45.50
2019-05-14T17:36:11.216Z,52.15
2019-05-14T17:38:48.937Z,54.15
2019-05-14T17:41:24.276Z,55.15
2019-05-14T17:44:01.223Z,58.60
2019-05-14T17:49:12.661Z,54.58
2019-05-14T17:51:48.612Z,55.73
2019-05-14T17:54:28.235Z,49.40
2019-05-14T17:57:02.959Z,53.85
2019-05-14T17:59:39.050Z,42.48
2019-05-14T18:02:15.019Z,41.23
2019-05-14T18:04:51.086Z,47.50
2019-05-14T18:07:28.540Z,47.53
2019-05-14T18:12:39.634Z,58.68
2019-05-14T18:15:14.814Z,60.10
2019-05-14T18:17:51.071Z,62.03
2019-05-14T18:20:28.684Z,62.17
2019-05-14T18:23:03.562Z,80.67
2019-05-14T18:25:39.294Z,82.97
2019-05-14T18:28:17.935Z,87.17
2019-05-14T18:30:52.862Z,95.17
2019-05-14T18:33:31.166Z,97.95
2019-05-14T18:38:39.340Z,98.15
2019-05-14T18:41:14.871Z,104.55
2019-05-14T18:43:50.603Z,101.75
2019-05-14T18:46:28.359Z,104.78
2019-05-14T18:49:03.175Z,110.92
2019-05-14T18:51:38.876Z,112.57
2019-05-14T18:54:14.697Z,117.97
2019-05-14T18:56:50.878Z,114.70
2019-05-14T18:59:30.534Z,110.77
2019-05-14T19:02:03.012Z,109.97
2019-05-14T19:04:38.673Z,118.28
2019-05-14T19:07:15.676Z,121.62
2019-05-14T19:09:51.355Z,117.97
2019-05-14T19:12:28.735Z,121.97
2019-05-14T19:15:03.590Z,119.15
2019-05-14T19:17:40.332Z,123.38
2019-05-14T19:20:19.064Z,121.60
2019-05-14T19:22:53.424Z,116.42
2019-05-14T19:25:29.643Z,125.65
2019-05-14T19:28:05.209Z,120.25
2019-05-14T19:30:40.786Z,121.97
2019-05-14T19:33:16.354Z,117.57
2019-05-14T19:35:53.096Z,119.02
2019-05-14T19:38:28.503Z,114.45
2019-05-14T19:41:04.142Z,114.15
2019-05-14T19:43:39.555Z,121.25
2019-05-14T19:46:15.415Z,126.90
2019-05-14T19:48:51.069Z,123.13
2019-05-14T19:51:27.881Z,115.85
2019-05-14T19:54:03.142Z,119.33
2019-05-14T19:56:52.429Z,125.92
2019-05-14T19:59:17.943Z,107.70
2019-05-14T20:04:29.017Z,115.77
2019-05-14T20:07:04.164Z,105.63
2019-05-14T20:09:40.018Z,104.07
2019-05-14T20:12:18.737Z,85.85
2019-05-14T20:14:54.799Z,75.53
2019-05-14T20:20:05.793Z,73.40
2019-05-14T20:22:42.059Z,59.83
2019-05-14T20:25:17.986Z,55.28
2019-05-14T20:27:54.430Z,58.52
2019-05-14T20:30:30.443Z,41.90
2019-05-14T20:33:08.494Z,47.63
2019-05-14T20:35:44.242Z,36.38
2019-05-14T20:38:20.452Z,25.02
2019-05-14T20:40:59.578Z,25.60
2019-05-14T20:43:35.610Z,22.90
2019-05-14T20:46:11.384Z,22.50
2019-05-14T20:48:50.500Z,21.12
2019-05-14T20:51:28.287Z,23.52
2019-05-14T20:54:05.647Z,22.60
2019-05-14T20:56:44.763Z,23.85
2019-05-14T20:59:21.258Z,36.17
2019-05-14T21:02:00.196Z,34.33
2019-05-14T21:04:36.877Z,24.85
2019-05-14T21:07:13.178Z,22.05
2019-05-14T21:09:49.223Z,25.02
2019-05-14T21:12:25.147Z,23.32
2019-05-14T21:15:01.457Z,20.75
2019-05-14T21:17:37.335Z,20.32
2019-05-14T21:20:13.128Z,25.82
2019-05-14T21:22:48.790Z,19.82
2019-05-14T21:25:24.531Z,17.05
2019-05-14T21:28:00.224Z,22.80
2019-05-14T21:30:36.008Z,24.72
2019-05-14T21:33:11.615Z,30.30
2019-05-14T21:35:48.498Z,24.92
2019-05-14T21:38:24.550Z,24.02
2019-05-14T21:41:00.199Z,21.42
2019-05-14T21:43:35.846Z,21.68
2019-05-14T21:46:11.665Z,22.13
2019-05-14T21:48:47.827Z,22.07
2019-05-14T21:51:23.638Z,23.47
2019-05-14T21:53:59.210Z,22.67
2019-05-14T21:56:34.905Z,22.98
2019-05-14T21:59:10.554Z,28.45
2019-05-14T22:01:48.458Z,24.12
2019-05-14T22:04:23.325Z,28.10
2019-05-14T22:06:59.137Z,32.35
2019-05-14T22:09:38.365Z,29.00
2019-05-14T22:12:12.049Z,28.73
2019-05-14T22:14:48.170Z,33.02
2019-05-14T22:17:24.181Z,32.50
2019-05-14T22:19:59.650Z,29.87
2019-05-14T22:22:35.433Z,32.63
2019-05-14T22:25:11.405Z,37.30
2019-05-14T22:27:48.388Z,34.58
2019-05-14T22:30:23.787Z,33.28
2019-05-14T22:33:00.699Z,38.28
2019-05-14T22:35:36.205Z,32.83
2019-05-14T22:38:12.073Z,36.33
2019-05-14T22:40:48.291Z,37.28
2019-05-14T22:43:24.035Z,35.38
2019-05-14T22:45:59.590Z,35.75
2019-05-14T22:48:35.381Z,34.85
2019-05-14T22:51:11.173Z,33.58
2019-05-14T22:53:49.281Z,33.45
2019-05-14T22:58:58.271Z,35.90
2019-05-14T23:01:34.033Z,53.30
2019-05-14T23:04:09.777Z,34.78
2019-05-14T23:06:45.358Z,34.48
2019-05-14T23:09:21.036Z,33.55
2019-05-14T23:11:58.863Z,32.67
2019-05-14T23:14:34.003Z,32.58
2019-05-14T23:17:09.706Z,31.17
2019-05-14T23:19:45.753Z,33.70
2019-05-14T23:22:21.358Z,37.27
2019-05-14T23:24:59.047Z,38.17
2019-05-14T23:30:08.235Z,42.00
2019-05-14T23:32:48.985Z,42.85
2019-05-14T23:37:59.285Z,52.85
2019-05-14T23:43:11.016Z,44.38
2019-05-14T23:45:47.056Z,54.23
2019-05-14T23:48:22.880Z,49.93
2019-05-14T23:50:59.146Z,50.80
2019-05-14T23:53:38.850Z,53.92
2019-05-14T23:56:13.848Z,50.40
2019-05-14T23:58:57.718Z,52.88
